Terminal Aerodrome Forecast
Issued by NWS Cleveland, OH

Home | Current Version | Previous Version | Text Only | Print | Product List | Glossary On
Versions: 1 2 3 4 5 6 7 8 9 10 11 12 13 14 15 16 17 18 19 20
217
FTUS41 KCLE 130121 AAA
TAFCAK
TAF AMD
KCAK 130121Z 1301/1324 30015G25KT 1 1/2SM -SHSN BKN015 OVC025
      TEMPO 1301/1303 30015KT 1/4SM +SN BLSN OVC008
     FM130300 30015G25KT 5SM -SHSN BKN035
      TEMPO 1303/1306 2SM -SHSN BKN025
     FM130800 30012G22KT P6SM VCSH BKN025
     FM131300 30015G22KT 3SM -SHSN OVC025
     FM132100 30012KT P6SM BKN035=

USA.gov is the U.S. government's official web portal to all federal, state and local government web resources and services.